sensor_id;sensor_type;location;lat;lon;timestamp;temperature;humidity
25741;DHT22;13592;50.838;4.412;2022-08-11T00:00:35;25.20;59.00
25741;DHT22;13592;50.838;4.412;2022-08-11T00:03:13;25.10;59.00
25741;DHT22;13592;50.838;4.412;2022-08-11T00:05:46;25.10;59.40
25741;DHT22;13592;50.838;4.412;2022-08-11T00:08:25;25.10;59.20
25741;DHT22;13592;50.838;4.412;2022-08-11T00:11:00;25.10;59.30
25741;DHT22;13592;50.838;4.412;2022-08-11T00:13:37;24.90;59.40
25741;DHT22;13592;50.838;4.412;2022-08-11T00:16:26;24.90;59.80
25741;DHT22;13592;50.838;4.412;2022-08-11T00:18:52;24.90;59.50
25741;DHT22;13592;50.838;4.412;2022-08-11T00:21:25;24.90;59.80
25741;DHT22;13592;50.838;4.412;2022-08-11T00:26:26;24.70;60.10
25741;DHT22;13592;50.838;4.412;2022-08-11T00:37:10;24.50;60.30
25741;DHT22;13592;50.838;4.412;2022-08-11T00:39:45;24.60;60.60
25741;DHT22;13592;50.838;4.412;2022-08-11T01:40:05;24.10;62.90
25741;DHT22;13592;50.838;4.412;2022-08-11T01:45:58;23.90;62.80
25741;DHT22;13592;50.838;4.412;2022-08-11T01:48:48;23.90;63.10
25741;DHT22;13592;50.838;4.412;2022-08-11T01:57:35;23.90;62.60
25741;DHT22;13592;50.838;4.412;2022-08-11T02:10:51;23.60;64.30
25741;DHT22;13592;50.838;4.412;2022-08-11T02:24:59;23.60;64.70
25741;DHT22;13592;50.838;4.412;2022-08-11T02:27:34;23.60;64.40
25741;DHT22;13592;50.838;4.412;2022-08-11T02:30:05;23.50;65.00
25741;DHT22;13592;50.838;4.412;2022-08-11T02:58:43;23.30;66.70
25741;DHT22;13592;50.838;4.412;2022-08-11T03:01:14;23.30;66.90
25741;DHT22;13592;50.838;4.412;2022-08-11T03:03:52;23.20;66.90
25741;DHT22;13592;50.838;4.412;2022-08-11T03:06:34;23.20;67.50
25741;DHT22;13592;50.838;4.412;2022-08-11T03:12:04;23.10;67.90
25741;DHT22;13592;50.838;4.412;2022-08-11T03:14:54;23.10;68.40
25741;DHT22;13592;50.838;4.412;2022-08-11T03:25:50;22.90;69.20
25741;DHT22;13592;50.838;4.412;2022-08-11T04:00:49;22.60;72.50
25741;DHT22;13592;50.838;4.412;2022-08-11T04:40:12;22.10;77.40
25741;DHT22;13592;50.838;4.412;2022-08-11T05:00:29;22.10;79.40
25741;DHT22;13592;50.838;4.412;2022-08-11T05:08:39;22.00;80.60
25741;DHT22;13592;50.838;4.412;2022-08-11T05:23:05;22.10;80.90
25741;DHT22;13592;50.838;4.412;2022-08-11T05:25:51;22.10;81.50
25741;DHT22;13592;50.838;4.412;2022-08-11T05:34:52;22.20;80.40
25741;DHT22;13592;50.838;4.412;2022-08-11T05:39:52;22.20;80.80
25741;DHT22;13592;50.838;4.412;2022-08-11T05:42:53;22.20;80.30
25741;DHT22;13592;50.838;4.412;2022-08-11T05:45:38;22.20;80.10
25741;DHT22;13592;50.838;4.412;2022-08-11T05:48:40;22.20;81.20
25741;DHT22;13592;50.838;4.412;2022-08-11T05:51:39;22.20;80.80
25741;DHT22;13592;50.838;4.412;2022-08-11T05:57:39;22.40;80.40
25741;DHT22;13592;50.838;4.412;2022-08-11T06:00:14;22.30;80.30
25741;DHT22;13592;50.838;4.412;2022-08-11T06:02:41;22.40;80.90
25741;DHT22;13592;50.838;4.412;2022-08-11T06:05:07;22.40;81.20
25741;DHT22;13592;50.838;4.412;2022-08-11T06:07:43;22.50;80.60
25741;DHT22;13592;50.838;4.412;2022-08-11T06:10:10;22.50;80.40
25741;DHT22;13592;50.838;4.412;2022-08-11T06:15:50;22.70;79.60
25741;DHT22;13592;50.838;4.412;2022-08-11T06:18:23;22.60;80.50
25741;DHT22;13592;50.838;4.412;2022-08-11T06:20:51;22.70;81.30
25741;DHT22;13592;50.838;4.412;2022-08-11T06:26:08;22.60;80.70
25741;DHT22;13592;50.838;4.412;2022-08-11T06:28:45;22.70;79.90
25741;DHT22;13592;50.838;4.412;2022-08-11T06:31:18;22.80;79.10
25741;DHT22;13592;50.838;4.412;2022-08-11T06:36:26;22.80;79.20
25741;DHT22;13592;50.838;4.412;2022-08-11T06:46:34;23.00;77.60
25741;DHT22;13592;50.838;4.412;2022-08-11T06:49:09;23.20;78.60
25741;DHT22;13592;50.838;4.412;2022-08-11T06:52:06;23.30;75.70
25741;DHT22;13592;50.838;4.412;2022-08-11T06:54:38;23.30;77.00
25741;DHT22;13592;50.838;4.412;2022-08-11T06:57:12;23.60;75.40
25741;DHT22;13592;50.838;4.412;2022-08-11T06:59:57;24.10;73.10
25741;DHT22;13592;50.838;4.412;2022-08-11T07:02:48;24.50;72.70
25741;DHT22;13592;50.838;4.412;2022-08-11T07:05:20;25.40;70.90
25741;DHT22;13592;50.838;4.412;2022-08-11T07:13:34;28.30;58.00
25741;DHT22;13592;50.838;4.412;2022-08-11T07:21:37;30.50;53.10
25741;DHT22;13592;50.838;4.412;2022-08-11T07:24:25;31.30;52.60
25741;DHT22;13592;50.838;4.412;2022-08-11T07:27:14;31.90;52.00
25741;DHT22;13592;50.838;4.412;2022-08-11T07:30:03;32.70;49.30
25741;DHT22;13592;50.838;4.412;2022-08-11T07:33:07;33.60;47.50
25741;DHT22;13592;50.838;4.412;2022-08-11T07:35:37;34.60;45.40
25741;DHT22;13592;50.838;4.412;2022-08-11T07:38:15;35.80;44.30
25741;DHT22;13592;50.838;4.412;2022-08-11T07:40:47;36.90;41.70
25741;DHT22;13592;50.838;4.412;2022-08-11T07:43:14;38.30;38.50
25741;DHT22;13592;50.838;4.412;2022-08-11T07:45:54;39.10;37.90
25741;DHT22;13592;50.838;4.412;2022-08-11T07:48:39;40.40;35.20
25741;DHT22;13592;50.838;4.412;2022-08-11T07:51:24;41.70;33.70
25741;DHT22;13592;50.838;4.412;2022-08-11T07:54:09;43.10;31.90
25741;DHT22;13592;50.838;4.412;2022-08-11T07:56:36;44.40;30.50
25741;DHT22;13592;50.838;4.412;2022-08-11T08:02:00;46.40;28.40
25741;DHT22;13592;50.838;4.412;2022-08-11T08:04:45;47.40;28.30
25741;DHT22;13592;50.838;4.412;2022-08-11T08:07:33;48.10;27.20
25741;DHT22;13592;50.838;4.412;2022-08-11T08:10:17;48.80;26.40
25741;DHT22;13592;50.838;4.412;2022-08-11T08:13:05;49.50;26.30
25741;DHT22;13592;50.838;4.412;2022-08-11T08:18:51;50.90;24.60
25741;DHT22;13592;50.838;4.412;2022-08-11T08:21:20;51.30;24.20
25741;DHT22;13592;50.838;4.412;2022-08-11T08:23:48;51.70;24.00
25741;DHT22;13592;50.838;4.412;2022-08-11T08:26:15;52.20;23.90
25741;DHT22;13592;50.838;4.412;2022-08-11T08:34:43;53.10;23.00
25741;DHT22;13592;50.838;4.412;2022-08-11T08:37:13;53.50;22.20
25741;DHT22;13592;50.838;4.412;2022-08-11T08:42:19;53.60;22.30
25741;DHT22;13592;50.838;4.412;2022-08-11T08:44:49;53.70;22.10
25741;DHT22;13592;50.838;4.412;2022-08-11T08:47:21;53.90;22.00
25741;DHT22;13592;50.838;4.412;2022-08-11T08:49:52;54.00;22.10
25741;DHT22;13592;50.838;4.412;2022-08-11T08:52:24;54.00;22.00
25741;DHT22;13592;50.838;4.412;2022-08-11T08:54:57;54.50;21.80
25741;DHT22;13592;50.838;4.412;2022-08-11T08:57:33;54.40;21.10
25741;DHT22;13592;50.838;4.412;2022-08-11T09:02:30;54.50;21.40
25741;DHT22;13592;50.838;4.412;2022-08-11T09:05:03;54.50;21.70
25741;DHT22;13592;50.838;4.412;2022-08-11T09:07:32;54.70;21.10
25741;DHT22;13592;50.838;4.412;2022-08-11T09:10:00;54.70;21.60
25741;DHT22;13592;50.838;4.412;2022-08-11T09:12:26;54.70;21.60
25741;DHT22;13592;50.838;4.412;2022-08-11T09:17:52;54.90;21.70
25741;DHT22;13592;50.838;4.412;2022-08-11T09:20:33;54.80;21.30
25741;DHT22;13592;50.838;4.412;2022-08-11T09:23:07;55.00;21.60
25741;DHT22;13592;50.838;4.412;2022-08-11T09:25:58;55.00;21.30
25741;DHT22;13592;50.838;4.412;2022-08-11T09:28:44;55.10;21.10
25741;DHT22;13592;50.838;4.412;2022-08-11T09:31:29;55.00;20.90
25741;DHT22;13592;50.838;4.412;2022-08-11T09:33:58;55.10;20.80
25741;DHT22;13592;50.838;4.412;2022-08-11T09:36:27;55.00;20.40
25741;DHT22;13592;50.838;4.412;2022-08-11T09:42:18;54.50;21.30
25741;DHT22;13592;50.838;4.412;2022-08-11T09:44:45;54.50;20.60
25741;DHT22;13592;50.838;4.412;2022-08-11T09:47:21;54.50;21.30
25741;DHT22;13592;50.838;4.412;2022-08-11T09:50:00;54.70;20.80
25741;DHT22;13592;50.838;4.412;2022-08-11T09:52:29;54.70;20.70
25741;DHT22;13592;50.838;4.412;2022-08-11T09:57:45;54.90;20.20
25741;DHT22;13592;50.838;4.412;2022-08-11T10:00:35;55.10;19.80
25741;DHT22;13592;50.838;4.412;2022-08-11T10:03:17;55.00;20.50
25741;DHT22;13592;50.838;4.412;2022-08-11T10:06:06;55.10;20.50
25741;DHT22;13592;50.838;4.412;2022-08-11T10:14:17;54.80;20.20
25741;DHT22;13592;50.838;4.412;2022-08-11T10:17:17;54.80;20.90
25741;DHT22;13592;50.838;4.412;2022-08-11T10:19:50;54.70;20.90
25741;DHT22;13592;50.838;4.412;2022-08-11T10:22:23;54.90;20.70
25741;DHT22;13592;50.838;4.412;2022-08-11T10:27:55;54.70;21.00
25741;DHT22;13592;50.838;4.412;2022-08-11T10:30:25;54.80;21.20
25741;DHT22;13592;50.838;4.412;2022-08-11T10:33:11;54.80;20.80
25741;DHT22;13592;50.838;4.412;2022-08-11T10:35:56;55.00;20.00
25741;DHT22;13592;50.838;4.412;2022-08-11T10:38:25;55.00;20.70
25741;DHT22;13592;50.838;4.412;2022-08-11T10:40:51;54.70;20.80
25741;DHT22;13592;50.838;4.412;2022-08-11T10:43:39;54.60;20.80
25741;DHT22;13592;50.838;4.412;2022-08-11T10:46:13;54.40;19.90
25741;DHT22;13592;50.838;4.412;2022-08-11T10:48:57;54.20;19.80
25741;DHT22;13592;50.838;4.412;2022-08-11T10:51:25;54.20;20.10
25741;DHT22;13592;50.838;4.412;2022-08-11T10:54:13;53.60;20.60
25741;DHT22;13592;50.838;4.412;2022-08-11T10:56:57;53.50;20.60
25741;DHT22;13592;50.838;4.412;2022-08-11T10:59:43;53.50;20.90
25741;DHT22;13592;50.838;4.412;2022-08-11T11:02:13;53.30;20.70
25741;DHT22;13592;50.838;4.412;2022-08-11T11:07:06;52.80;21.60
25741;DHT22;13592;50.838;4.412;2022-08-11T11:09:45;52.40;20.50
25741;DHT22;13592;50.838;4.412;2022-08-11T11:12:17;51.80;21.50
25741;DHT22;13592;50.838;4.412;2022-08-11T11:15:03;51.30;21.90
25741;DHT22;13592;50.838;4.412;2022-08-11T11:18:02;50.30;22.30
25741;DHT22;13592;50.838;4.412;2022-08-11T11:20:44;49.30;23.00
25741;DHT22;13592;50.838;4.412;2022-08-11T11:23:13;48.00;23.70
25741;DHT22;13592;50.838;4.412;2022-08-11T11:31:10;45.20;25.30
25741;DHT22;13592;50.838;4.412;2022-08-11T11:41:36;41.40;28.70
25741;DHT22;13592;50.838;4.412;2022-08-11T11:44:16;40.60;27.60
25741;DHT22;13592;50.838;4.412;2022-08-11T11:46:49;39.80;27.60
25741;DHT22;13592;50.838;4.412;2022-08-11T11:49:18;39.20;28.70
25741;DHT22;13592;50.838;4.412;2022-08-11T11:51:46;38.60;29.10
25741;DHT22;13592;50.838;4.412;2022-08-11T11:56:46;37.80;30.50
25741;DHT22;13592;50.838;4.412;2022-08-11T11:59:15;37.40;30.60
25741;DHT22;13592;50.838;4.412;2022-08-11T12:07:39;36.50;32.00
25741;DHT22;13592;50.838;4.412;2022-08-11T12:10:24;36.10;32.10
25741;DHT22;13592;50.838;4.412;2022-08-11T12:12:51;35.80;33.00
25741;DHT22;13592;50.838;4.412;2022-08-11T12:15:37;35.50;33.80
25741;DHT22;13592;50.838;4.412;2022-08-11T12:18:15;35.30;34.50
25741;DHT22;13592;50.838;4.412;2022-08-11T12:23:27;35.10;34.00
25741;DHT22;13592;50.838;4.412;2022-08-11T12:26:21;34.80;35.80
25741;DHT22;13592;50.838;4.412;2022-08-11T12:29:08;34.50;33.00
25741;DHT22;13592;50.838;4.412;2022-08-11T12:31:44;34.30;33.50
25741;DHT22;13592;50.838;4.412;2022-08-11T12:34:14;34.30;33.00
25741;DHT22;13592;50.838;4.412;2022-08-11T12:36:50;34.40;33.00
25741;DHT22;13592;50.838;4.412;2022-08-11T12:45:29;33.90;36.00
25741;DHT22;13592;50.838;4.412;2022-08-11T12:51:07;33.70;37.20
25741;DHT22;13592;50.838;4.412;2022-08-11T12:54:09;33.70;35.50
25741;DHT22;13592;50.838;4.412;2022-08-11T12:56:53;33.60;35.90
25741;DHT22;13592;50.838;4.412;2022-08-11T12:59:41;33.60;36.40
25741;DHT22;13592;50.838;4.412;2022-08-11T13:02:33;33.60;36.20
25741;DHT22;13592;50.838;4.412;2022-08-11T13:05:24;33.60;34.40
25741;DHT22;13592;50.838;4.412;2022-08-11T13:10:20;33.80;33.00
25741;DHT22;13592;50.838;4.412;2022-08-11T13:13:06;33.80;33.40
25741;DHT22;13592;50.838;4.412;2022-08-11T13:15:38;33.60;35.40
25741;DHT22;13592;50.838;4.412;2022-08-11T13:18:09;33.40;35.60
25741;DHT22;13592;50.838;4.412;2022-08-11T13:20:50;33.30;37.40
25741;DHT22;13592;50.838;4.412;2022-08-11T13:28:39;33.10;36.00
25741;DHT22;13592;50.838;4.412;2022-08-11T13:31:12;33.00;37.00
25741;DHT22;13592;50.838;4.412;2022-08-11T13:33:44;33.00;37.30
25741;DHT22;13592;50.838;4.412;2022-08-11T13:38:41;33.00;36.20
25741;DHT22;13592;50.838;4.412;2022-08-11T13:41:10;33.10;36.90
25741;DHT22;13592;50.838;4.412;2022-08-11T13:43:58;33.00;35.40
25741;DHT22;13592;50.838;4.412;2022-08-11T13:46:24;33.10;35.60
25741;DHT22;13592;50.838;4.412;2022-08-11T13:48:54;33.00;36.00
25741;DHT22;13592;50.838;4.412;2022-08-11T13:51:22;33.00;36.60
25741;DHT22;13592;50.838;4.412;2022-08-11T13:54:02;33.00;38.30
25741;DHT22;13592;50.838;4.412;2022-08-11T13:56:32;32.90;38.60
25741;DHT22;13592;50.838;4.412;2022-08-11T13:59:00;32.90;38.50
25741;DHT22;13592;50.838;4.412;2022-08-11T14:01:32;33.00;37.50
25741;DHT22;13592;50.838;4.412;2022-08-11T14:04:07;33.10;35.30
25741;DHT22;13592;50.838;4.412;2022-08-11T14:06:34;33.10;38.70
25741;DHT22;13592;50.838;4.412;2022-08-11T14:09:02;32.90;35.90
25741;DHT22;13592;50.838;4.412;2022-08-11T14:11:34;32.90;36.50
25741;DHT22;13592;50.838;4.412;2022-08-11T14:14:25;32.90;37.70
25741;DHT22;13592;50.838;4.412;2022-08-11T14:16:53;33.00;36.20
25741;DHT22;13592;50.838;4.412;2022-08-11T14:19:21;33.10;38.20
25741;DHT22;13592;50.838;4.412;2022-08-11T14:21:48;33.10;38.30
25741;DHT22;13592;50.838;4.412;2022-08-11T14:24:43;33.00;37.50
25741;DHT22;13592;50.838;4.412;2022-08-11T14:27:21;33.00;38.00
25741;DHT22;13592;50.838;4.412;2022-08-11T14:29:53;32.80;39.20
25741;DHT22;13592;50.838;4.412;2022-08-11T14:32:22;32.70;38.80
25741;DHT22;13592;50.838;4.412;2022-08-11T14:34:51;32.60;38.80
25741;DHT22;13592;50.838;4.412;2022-08-11T14:37:20;32.60;39.70
25741;DHT22;13592;50.838;4.412;2022-08-11T14:39:52;32.50;39.40
25741;DHT22;13592;50.838;4.412;2022-08-11T14:42:24;32.60;40.20
25741;DHT22;13592;50.838;4.412;2022-08-11T14:45:12;32.60;39.10
25741;DHT22;13592;50.838;4.412;2022-08-11T14:48:00;32.60;39.40
25741;DHT22;13592;50.838;4.412;2022-08-11T14:50:28;32.60;38.90
25741;DHT22;13592;50.838;4.412;2022-08-11T14:53:08;32.70;35.20
25741;DHT22;13592;50.838;4.412;2022-08-11T14:55:57;32.90;35.00
25741;DHT22;13592;50.838;4.412;2022-08-11T14:58:58;32.90;35.60
25741;DHT22;13592;50.838;4.412;2022-08-11T15:04:15;32.80;37.20
25741;DHT22;13592;50.838;4.412;2022-08-11T15:06:42;32.80;38.60
25741;DHT22;13592;50.838;4.412;2022-08-11T15:09:08;32.70;38.50
25741;DHT22;13592;50.838;4.412;2022-08-11T15:14:26;32.50;38.90
25741;DHT22;13592;50.838;4.412;2022-08-11T15:17:14;32.40;39.70
25741;DHT22;13592;50.838;4.412;2022-08-11T15:19:40;32.50;37.60
25741;DHT22;13592;50.838;4.412;2022-08-11T15:22:30;32.50;38.10
25741;DHT22;13592;50.838;4.412;2022-08-11T15:25:17;32.40;38.90
25741;DHT22;13592;50.838;4.412;2022-08-11T15:27:47;32.40;39.30
25741;DHT22;13592;50.838;4.412;2022-08-11T15:30:44;32.40;37.60
25741;DHT22;13592;50.838;4.412;2022-08-11T15:33:39;32.40;38.60
25741;DHT22;13592;50.838;4.412;2022-08-11T15:36:31;32.50;36.70
25741;DHT22;13592;50.838;4.412;2022-08-11T15:42:12;32.40;37.80
25741;DHT22;13592;50.838;4.412;2022-08-11T15:45:05;32.30;37.70
25741;DHT22;13592;50.838;4.412;2022-08-11T15:48:08;32.20;38.70
25741;DHT22;13592;50.838;4.412;2022-08-11T15:50:40;32.10;39.50
25741;DHT22;13592;50.838;4.412;2022-08-11T15:53:19;32.10;39.90
25741;DHT22;13592;50.838;4.412;2022-08-11T15:55:53;32.00;41.00
25741;DHT22;13592;50.838;4.412;2022-08-11T15:58:23;31.90;41.50
25741;DHT22;13592;50.838;4.412;2022-08-11T16:01:12;31.90;41.70
25741;DHT22;13592;50.838;4.412;2022-08-11T16:04:00;31.90;40.70
25741;DHT22;13592;50.838;4.412;2022-08-11T16:06:40;31.90;39.20
25741;DHT22;13592;50.838;4.412;2022-08-11T16:09:12;31.90;36.20
25741;DHT22;13592;50.838;4.412;2022-08-11T16:11:43;31.90;36.10
25741;DHT22;13592;50.838;4.412;2022-08-11T16:14:13;31.70;37.50
25741;DHT22;13592;50.838;4.412;2022-08-11T16:19:38;31.50;38.90
25741;DHT22;13592;50.838;4.412;2022-08-11T16:22:09;31.50;38.60
25741;DHT22;13592;50.838;4.412;2022-08-11T16:24:38;31.40;39.20
25741;DHT22;13592;50.838;4.412;2022-08-11T16:27:09;31.40;40.00
25741;DHT22;13592;50.838;4.412;2022-08-11T16:29:37;31.30;40.10
25741;DHT22;13592;50.838;4.412;2022-08-11T16:32:05;31.30;39.30
25741;DHT22;13592;50.838;4.412;2022-08-11T16:34:49;31.20;39.30
25741;DHT22;13592;50.838;4.412;2022-08-11T16:37:35;31.20;39.00
25741;DHT22;13592;50.838;4.412;2022-08-11T16:40:19;31.10;40.30
25741;DHT22;13592;50.838;4.412;2022-08-11T16:42:47;31.00;38.40
25741;DHT22;13592;50.838;4.412;2022-08-11T16:45:38;31.00;39.70
25741;DHT22;13592;50.838;4.412;2022-08-11T16:48:25;31.00;38.80
25741;DHT22;13592;50.838;4.412;2022-08-11T16:50:54;31.00;39.40
25741;DHT22;13592;50.838;4.412;2022-08-11T16:53:26;31.00;39.60
25741;DHT22;13592;50.838;4.412;2022-08-11T16:55:52;31.00;38.70
25741;DHT22;13592;50.838;4.412;2022-08-11T16:58:18;30.90;40.20
25741;DHT22;13592;50.838;4.412;2022-08-11T17:01:04;30.90;38.30
25741;DHT22;13592;50.838;4.412;2022-08-11T17:03:30;30.90;38.00
25741;DHT22;13592;50.838;4.412;2022-08-11T17:06:18;30.80;38.60
25741;DHT22;13592;50.838;4.412;2022-08-11T17:09:04;30.90;38.30
25741;DHT22;13592;50.838;4.412;2022-08-11T17:11:59;30.80;37.60
25741;DHT22;13592;50.838;4.412;2022-08-11T17:14:48;30.70;37.70
25741;DHT22;13592;50.838;4.412;2022-08-11T17:17:43;30.60;38.80
25741;DHT22;13592;50.838;4.412;2022-08-11T17:20:08;30.60;38.40
25741;DHT22;13592;50.838;4.412;2022-08-11T17:22:41;30.60;39.00
25741;DHT22;13592;50.838;4.412;2022-08-11T17:27:58;30.60;41.30
25741;DHT22;13592;50.838;4.412;2022-08-11T17:30:24;30.50;38.70
25741;DHT22;13592;50.838;4.412;2022-08-11T17:33:14;30.50;39.20
25741;DHT22;13592;50.838;4.412;2022-08-11T17:36:00;30.50;38.70
25741;DHT22;13592;50.838;4.412;2022-08-11T17:40:59;30.50;37.50
25741;DHT22;13592;50.838;4.412;2022-08-11T17:43:44;30.50;38.50
25741;DHT22;13592;50.838;4.412;2022-08-11T17:46:34;30.50;38.10
25741;DHT22;13592;50.838;4.412;2022-08-11T17:49:20;30.40;40.20
25741;DHT22;13592;50.838;4.412;2022-08-11T17:51:52;30.40;40.30
25741;DHT22;13592;50.838;4.412;2022-08-11T17:54:37;30.30;40.10
25741;DHT22;13592;50.838;4.412;2022-08-11T17:57:23;30.30;40.30
25741;DHT22;13592;50.838;4.412;2022-08-11T18:00:08;30.30;40.20
25741;DHT22;13592;50.838;4.412;2022-08-11T18:02:39;30.30;40.30
25741;DHT22;13592;50.838;4.412;2022-08-11T18:05:27;30.20;41.30
25741;DHT22;13592;50.838;4.412;2022-08-11T18:07:53;30.20;39.50
25741;DHT22;13592;50.838;4.412;2022-08-11T18:10:39;30.10;40.60
25741;DHT22;13592;50.838;4.412;2022-08-11T18:13:25;30.10;40.80
25741;DHT22;13592;50.838;4.412;2022-08-11T18:16:11;30.00;40.80
25741;DHT22;13592;50.838;4.412;2022-08-11T18:18:55;30.00;40.50
25741;DHT22;13592;50.838;4.412;2022-08-11T18:21:43;30.00;41.50
25741;DHT22;13592;50.838;4.412;2022-08-11T18:24:29;29.90;42.10
25741;DHT22;13592;50.838;4.412;2022-08-11T18:27:15;29.80;42.30
25741;DHT22;13592;50.838;4.412;2022-08-11T18:30:02;29.80;42.80
25741;DHT22;13592;50.838;4.412;2022-08-11T18:32:48;29.70;42.70
25741;DHT22;13592;50.838;4.412;2022-08-11T18:35:34;29.70;43.80
25741;DHT22;13592;50.838;4.412;2022-08-11T18:38:18;29.70;42.60
25741;DHT22;13592;50.838;4.412;2022-08-11T18:41:03;29.60;44.60
25741;DHT22;13592;50.838;4.412;2022-08-11T18:43:49;29.60;44.30
25741;DHT22;13592;50.838;4.412;2022-08-11T18:46:35;29.50;44.10
25741;DHT22;13592;50.838;4.412;2022-08-11T18:49:21;29.50;43.60
25741;DHT22;13592;50.838;4.412;2022-08-11T18:52:08;29.40;43.90
25741;DHT22;13592;50.838;4.412;2022-08-11T18:54:55;29.40;44.50
25741;DHT22;13592;50.838;4.412;2022-08-11T18:57:40;29.40;43.90
25741;DHT22;13592;50.838;4.412;2022-08-11T19:00:26;29.30;43.60
25741;DHT22;13592;50.838;4.412;2022-08-11T19:03:14;29.30;43.60
25741;DHT22;13592;50.838;4.412;2022-08-11T19:06:01;29.20;44.80
25741;DHT22;13592;50.838;4.412;2022-08-11T19:08:56;29.20;44.70
25741;DHT22;13592;50.838;4.412;2022-08-11T19:11:42;29.10;44.90
25741;DHT22;13592;50.838;4.412;2022-08-11T19:14:28;29.10;44.50
25741;DHT22;13592;50.838;4.412;2022-08-11T19:17:14;29.10;45.40
25741;DHT22;13592;50.838;4.412;2022-08-11T19:20:08;29.10;44.60
25741;DHT22;13592;50.838;4.412;2022-08-11T19:22:53;29.00;45.00
25741;DHT22;13592;50.838;4.412;2022-08-11T19:25:41;29.00;46.30
25741;DHT22;13592;50.838;4.412;2022-08-11T19:28:25;29.00;45.20
25741;DHT22;13592;50.838;4.412;2022-08-11T19:31:11;28.90;45.00
25741;DHT22;13592;50.838;4.412;2022-08-11T19:33:55;28.90;44.70
25741;DHT22;13592;50.838;4.412;2022-08-11T19:36:41;28.90;45.50
25741;DHT22;13592;50.838;4.412;2022-08-11T19:39:25;28.80;45.80
25741;DHT22;13592;50.838;4.412;2022-08-11T19:42:09;28.80;45.60
25741;DHT22;13592;50.838;4.412;2022-08-11T19:44:54;28.60;46.30
25741;DHT22;13592;50.838;4.412;2022-08-11T19:47:42;28.70;46.30
25741;DHT22;13592;50.838;4.412;2022-08-11T19:50:30;28.70;46.50
25741;DHT22;13592;50.838;4.412;2022-08-11T19:53:14;28.60;46.30
25741;DHT22;13592;50.838;4.412;2022-08-11T19:55:58;28.60;46.50
25741;DHT22;13592;50.838;4.412;2022-08-11T19:58:43;28.60;46.80
25741;DHT22;13592;50.838;4.412;2022-08-11T20:01:27;28.60;46.20
25741;DHT22;13592;50.838;4.412;2022-08-11T20:04:12;28.60;46.80
25741;DHT22;13592;50.838;4.412;2022-08-11T20:06:58;28.50;46.80
25741;DHT22;13592;50.838;4.412;2022-08-11T20:09:43;28.40;47.40
25741;DHT22;13592;50.838;4.412;2022-08-11T20:12:28;28.30;47.00
25741;DHT22;13592;50.838;4.412;2022-08-11T20:15:15;28.30;47.70
25741;DHT22;13592;50.838;4.412;2022-08-11T20:18:03;28.30;46.30
25741;DHT22;13592;50.838;4.412;2022-08-11T20:20:54;28.30;46.70
25741;DHT22;13592;50.838;4.412;2022-08-11T20:23:39;28.30;46.70
25741;DHT22;13592;50.838;4.412;2022-08-11T20:26:24;28.40;47.40
25741;DHT22;13592;50.838;4.412;2022-08-11T20:29:11;28.30;46.80
25741;DHT22;13592;50.838;4.412;2022-08-11T20:31:58;28.20;46.80
25741;DHT22;13592;50.838;4.412;2022-08-11T20:34:44;28.20;47.00
25741;DHT22;13592;50.838;4.412;2022-08-11T20:37:31;28.20;47.60
25741;DHT22;13592;50.838;4.412;2022-08-11T20:40:26;28.20;47.20
25741;DHT22;13592;50.838;4.412;2022-08-11T20:43:13;28.10;47.30
25741;DHT22;13592;50.838;4.412;2022-08-11T20:46:02;28.10;47.90
25741;DHT22;13592;50.838;4.412;2022-08-11T20:54:26;28.00;47.30
25741;DHT22;13592;50.838;4.412;2022-08-11T20:57:11;28.00;47.80
25741;DHT22;13592;50.838;4.412;2022-08-11T20:59:56;28.00;47.70
25741;DHT22;13592;50.838;4.412;2022-08-11T21:02:41;28.00;48.00
25741;DHT22;13592;50.838;4.412;2022-08-11T21:05:26;28.00;47.80
25741;DHT22;13592;50.838;4.412;2022-08-11T21:08:20;27.90;48.30
25741;DHT22;13592;50.838;4.412;2022-08-11T21:11:10;27.80;48.50
25741;DHT22;13592;50.838;4.412;2022-08-11T21:14:02;27.70;48.20
25741;DHT22;13592;50.838;4.412;2022-08-11T21:16:48;27.80;48.90
25741;DHT22;13592;50.838;4.412;2022-08-11T21:19:36;27.70;48.60
25741;DHT22;13592;50.838;4.412;2022-08-11T21:22:22;27.60;48.30
25741;DHT22;13592;50.838;4.412;2022-08-11T21:25:09;27.50;49.50
25741;DHT22;13592;50.838;4.412;2022-08-11T21:28:03;27.50;49.40
25741;DHT22;13592;50.838;4.412;2022-08-11T21:30:49;27.40;49.30
25741;DHT22;13592;50.838;4.412;2022-08-11T21:33:35;27.50;49.30
25741;DHT22;13592;50.838;4.412;2022-08-11T21:36:21;27.50;49.70
25741;DHT22;13592;50.838;4.412;2022-08-11T21:39:11;27.30;49.70
25741;DHT22;13592;50.838;4.412;2022-08-11T21:44:46;27.20;50.00
25741;DHT22;13592;50.838;4.412;2022-08-11T21:47:33;27.20;49.20
25741;DHT22;13592;50.838;4.412;2022-08-11T21:50:18;27.30;49.50
25741;DHT22;13592;50.838;4.412;2022-08-11T21:53:05;27.20;50.30
25741;DHT22;13592;50.838;4.412;2022-08-11T21:55:51;27.20;50.00
25741;DHT22;13592;50.838;4.412;2022-08-11T21:58:36;27.20;49.90
25741;DHT22;13592;50.838;4.412;2022-08-11T22:01:23;27.10;50.30
25741;DHT22;13592;50.838;4.412;2022-08-11T22:04:08;27.10;50.10
25741;DHT22;13592;50.838;4.412;2022-08-11T22:06:52;27.00;50.10
25741;DHT22;13592;50.838;4.412;2022-08-11T22:09:36;26.90;50.30
25741;DHT22;13592;50.838;4.412;2022-08-11T22:12:21;26.80;50.60
25741;DHT22;13592;50.838;4.412;2022-08-11T22:15:06;26.90;50.40
25741;DHT22;13592;50.838;4.412;2022-08-11T22:17:50;26.90;50.40
25741;DHT22;13592;50.838;4.412;2022-08-11T22:20:37;27.00;50.40
25741;DHT22;13592;50.838;4.412;2022-08-11T22:26:09;26.90;50.60
25741;DHT22;13592;50.838;4.412;2022-08-11T22:28:55;26.80;50.50
25741;DHT22;13592;50.838;4.412;2022-08-11T22:31:40;26.90;50.10
25741;DHT22;13592;50.838;4.412;2022-08-11T22:34:27;26.80;50.90
25741;DHT22;13592;50.838;4.412;2022-08-11T22:37:12;26.70;50.70
25741;DHT22;13592;50.838;4.412;2022-08-11T22:39:58;26.60;51.30
25741;DHT22;13592;50.838;4.412;2022-08-11T22:42:43;26.60;51.40
25741;DHT22;13592;50.838;4.412;2022-08-11T22:48:14;26.50;51.10
25741;DHT22;13592;50.838;4.412;2022-08-11T22:51:00;26.60;51.20
25741;DHT22;13592;50.838;4.412;2022-08-11T22:53:46;26.50;51.10
25741;DHT22;13592;50.838;4.412;2022-08-11T22:56:31;26.40;51.40
25741;DHT22;13592;50.838;4.412;2022-08-11T22:59:17;26.50;51.20
25741;DHT22;13592;50.838;4.412;2022-08-11T23:02:02;26.60;51.40
25741;DHT22;13592;50.838;4.412;2022-08-11T23:04:50;26.50;51.00
25741;DHT22;13592;50.838;4.412;2022-08-11T23:07:34;26.50;51.20
25741;DHT22;13592;50.838;4.412;2022-08-11T23:10:20;26.50;51.20
25741;DHT22;13592;50.838;4.412;2022-08-11T23:13:07;26.50;51.50
25741;DHT22;13592;50.838;4.412;2022-08-11T23:21:27;26.20;52.30
25741;DHT22;13592;50.838;4.412;2022-08-11T23:24:11;26.10;52.80
25741;DHT22;13592;50.838;4.412;2022-08-11T23:26:55;26.10;53.30